createdAt,value
2023-02-11T00:00:21.424Z,45.40
2023-02-11T00:01:17.538Z,46.90
2023-02-11T00:02:11.755Z,47.90
2023-02-11T00:03:07.091Z,41.20
2023-02-11T00:04:02.166Z,41.80
2023-02-11T00:04:58.203Z,44.00
2023-02-11T00:05:52.693Z,40.30
2023-02-11T00:06:49.012Z,42.90
2023-02-11T00:07:43.173Z,45.70
2023-02-11T00:08:38.763Z,41.90
2023-02-11T00:09:33.741Z,40.50
2023-02-11T00:10:28.985Z,42.20
2023-02-11T00:11:24.169Z,45.70
2023-02-11T00:12:19.813Z,41.20
2023-02-11T00:13:14.759Z,37.80
2023-02-11T00:14:10.174Z,41.30
2023-02-11T00:15:05.174Z,40.60
2023-02-11T00:16:00.380Z,39.10
2023-02-11T00:16:55.722Z,39.20
2023-02-11T00:19:15.946Z,39.70
2023-02-11T00:20:10.932Z,41.10
2023-02-11T00:21:06.304Z,38.30
2023-02-11T00:22:01.657Z,37.50
2023-02-11T00:22:56.778Z,44.00
2023-02-11T00:23:51.981Z,42.50
2023-02-11T00:24:47.202Z,37.00
2023-02-11T00:25:42.857Z,42.70
2023-02-11T00:26:37.902Z,45.50
2023-02-11T00:27:33.413Z,38.50
2023-02-11T00:28:28.339Z,44.40
2023-02-11T00:29:23.595Z,45.50
2023-02-11T00:30:18.764Z,38.00
2023-02-11T00:31:14.170Z,43.40
2023-02-11T00:32:09.243Z,35.60
2023-02-11T00:33:04.616Z,38.00
2023-02-11T00:34:00.423Z,40.50
2023-02-11T00:34:55.617Z,38.00
2023-02-11T00:35:50.589Z,38.90
2023-02-11T00:36:45.535Z,42.80
2023-02-11T00:37:40.750Z,40.60
2023-02-11T00:38:36.004Z,40.50
2023-02-11T00:39:31.588Z,41.20
2023-02-11T00:40:26.572Z,42.30
2023-02-11T00:41:21.789Z,36.60
2023-02-11T00:42:17.175Z,35.50
2023-02-11T00:43:12.229Z,39.20
2023-02-11T00:44:07.640Z,35.50
2023-02-11T00:45:02.848Z,44.30
2023-02-11T00:45:58.265Z,39.20
2023-02-11T00:46:53.334Z,38.80
2023-02-11T00:47:48.589Z,39.40
2023-02-11T00:48:43.826Z,45.30
2023-02-11T00:49:39.239Z,43.70
2023-02-11T00:50:34.353Z,37.70
2023-02-11T00:51:29.743Z,41.00
2023-02-11T00:52:25.384Z,36.50
2023-02-11T00:53:20.371Z,30.50
2023-02-11T00:54:15.399Z,38.10
2023-02-11T00:55:10.650Z,40.00
2023-02-11T00:56:05.856Z,36.90
2023-02-11T00:57:01.235Z,39.90
2023-02-11T00:57:56.465Z,39.70
2023-02-11T00:58:51.559Z,37.40
2023-02-11T00:59:46.788Z,40.60
2023-02-11T01:00:41.994Z,39.40
2023-02-11T01:01:37.342Z,36.30
2023-02-11T01:02:32.486Z,41.80
2023-02-11T01:03:27.895Z,39.60
2023-02-11T01:04:23.004Z,44.60
2023-02-11T01:06:43.366Z,36.20
2023-02-11T01:07:38.523Z,42.50
2023-02-11T01:08:33.749Z,42.60
2023-02-11T01:09:28.984Z,48.30
2023-02-11T01:10:24.475Z,45.90
2023-02-11T01:11:19.423Z,41.90
2023-02-11T01:12:14.799Z,40.40
2023-02-11T01:13:09.903Z,44.90
2023-02-11T01:14:05.230Z,38.70
2023-02-11T01:15:00.468Z,41.50
2023-02-11T01:15:56.611Z,41.50
2023-02-11T01:16:51.154Z,43.70
2023-02-11T01:17:46.253Z,40.20
2023-02-11T01:18:42.140Z,37.30
2023-02-11T01:19:36.858Z,44.40
2023-02-11T01:20:32.183Z,40.30
2023-02-11T01:21:27.498Z,40.60
2023-02-11T01:22:22.616Z,40.20
2023-02-11T01:23:17.808Z,43.00
2023-02-11T01:24:13.201Z,39.40
2023-02-11T01:25:08.549Z,38.90
2023-02-11T01:26:03.772Z,39.30
2023-02-11T01:26:59.323Z,36.90
2023-02-11T01:27:54.294Z,45.00
2023-02-11T01:28:49.603Z,39.90
2023-02-11T01:29:44.836Z,39.70
2023-02-11T01:30:40.084Z,39.60
2023-02-11T01:31:35.338Z,43.10
2023-02-11T01:32:30.524Z,40.40
2023-02-11T01:33:25.883Z,43.00
2023-02-11T01:34:21.216Z,45.90
2023-02-11T01:35:16.326Z,41.70
2023-02-11T01:36:11.528Z,39.80
2023-02-11T01:37:07.226Z,38.90
2023-02-11T01:38:02.310Z,37.70
2023-02-11T01:38:57.387Z,42.20
2023-02-11T01:39:52.687Z,44.70
2023-02-11T01:40:48.074Z,42.00
2023-02-11T01:41:43.122Z,47.70
2023-02-11T01:42:38.456Z,40.20
2023-02-11T01:43:33.764Z,42.30
2023-02-11T01:44:28.958Z,44.40
2023-02-11T01:45:24.193Z,40.00
2023-02-11T01:46:19.478Z,42.40
2023-02-11T01:47:15.620Z,44.70
2023-02-11T01:48:10.047Z,47.00
2023-02-11T01:49:05.316Z,50.80
2023-02-11T01:50:00.430Z,43.20
2023-02-11T01:50:55.796Z,40.40
2023-02-11T01:51:51.003Z,42.20
2023-02-11T01:52:46.184Z,41.10
2023-02-11T01:53:41.406Z,43.40
2023-02-11T01:54:36.611Z,40.60
2023-02-11T01:55:31.864Z,39.30
2023-02-11T01:56:27.076Z,43.70
2023-02-11T01:57:22.549Z,43.60
2023-02-11T01:58:17.496Z,41.60
2023-02-11T01:59:12.852Z,43.90
2023-02-11T02:00:08.082Z,43.10
2023-02-11T02:01:03.288Z,42.30
2023-02-11T02:01:58.610Z,40.80
2023-02-11T02:02:53.715Z,40.20
2023-02-11T02:03:48.972Z,44.90
2023-02-11T02:04:44.544Z,40.90
2023-02-11T02:05:39.529Z,42.60
2023-02-11T02:06:34.764Z,45.50
2023-02-11T02:07:29.927Z,36.00
2023-02-11T02:08:25.484Z,40.10
2023-02-11T02:09:19.739Z,42.20
2023-02-11T02:10:14.850Z,39.60
2023-02-11T02:11:09.934Z,43.00
2023-02-11T02:12:05.190Z,41.90
2023-02-11T02:13:00.206Z,41.30
2023-02-11T02:13:55.168Z,42.80
2023-02-11T02:14:50.130Z,45.00
2023-02-11T02:15:45.689Z,42.10
2023-02-11T02:16:40.699Z,43.20
2023-02-11T02:17:35.818Z,42.00
2023-02-11T02:18:31.119Z,38.20
2023-02-11T02:19:26.056Z,43.20
2023-02-11T02:20:21.205Z,43.30
2023-02-11T02:21:16.322Z,44.30
2023-02-11T02:22:11.163Z,43.10
2023-02-11T02:23:06.271Z,43.80
2023-02-11T02:24:01.331Z,41.30
2023-02-11T02:24:56.496Z,46.20
2023-02-11T02:25:51.672Z,39.60
2023-02-11T02:26:46.551Z,39.60
2023-02-11T02:27:41.480Z,39.00
2023-02-11T02:28:36.579Z,43.20
2023-02-11T02:29:31.563Z,45.90
2023-02-11T02:30:26.644Z,39.90
2023-02-11T02:31:21.713Z,44.40
2023-02-11T02:32:20.623Z,44.20
2023-02-11T02:33:22.451Z,38.90
2023-02-11T02:34:11.825Z,44.30
2023-02-11T02:35:05.869Z,38.80
2023-02-11T02:36:01.890Z,43.30
2023-02-11T02:36:57.106Z,43.80
2023-02-11T02:37:52.380Z,39.80
2023-02-11T02:38:47.564Z,40.00
2023-02-11T02:39:43.918Z,39.40
2023-02-11T02:40:38.981Z,42.70
2023-02-11T02:41:34.217Z,43.40
2023-02-11T02:42:29.465Z,39.60
2023-02-11T02:43:24.692Z,37.70
2023-02-11T02:44:19.893Z,39.50
2023-02-11T02:45:15.278Z,37.90
2023-02-11T02:46:10.525Z,39.70
2023-02-11T02:47:05.871Z,35.10
2023-02-11T02:48:00.968Z,43.80
2023-02-11T02:48:56.352Z,36.60
2023-02-11T02:49:51.428Z,36.60
2023-02-11T02:50:46.669Z,40.80
2023-02-11T02:51:41.906Z,36.90
2023-02-11T02:52:37.390Z,39.10
2023-02-11T02:53:32.428Z,42.50
2023-02-11T02:54:27.798Z,40.40
2023-02-11T02:55:23.020Z,34.50
2023-02-11T02:56:18.366Z,40.60
2023-02-11T02:57:13.345Z,36.50
2023-02-11T02:58:08.614Z,40.20
2023-02-11T02:59:04.100Z,40.20
2023-02-11T02:59:59.149Z,38.60
2023-02-11T03:00:54.511Z,39.10
2023-02-11T03:03:21.055Z,38.30
2023-02-11T03:04:15.998Z,41.60
2023-02-11T03:05:11.350Z,38.70
2023-02-11T03:06:06.565Z,36.50
2023-02-11T03:07:01.927Z,39.00
2023-02-11T03:07:57.172Z,45.40
2023-02-11T03:08:52.403Z,37.00
2023-02-11T03:09:47.603Z,42.90
2023-02-11T03:10:42.951Z,41.40
2023-02-11T03:11:38.379Z,37.40
2023-02-11T03:12:33.390Z,38.30
2023-02-11T03:13:28.756Z,41.70
2023-02-11T03:14:23.865Z,39.90
2023-02-11T03:15:19.097Z,44.50
2023-02-11T03:16:14.375Z,38.90
2023-02-11T03:17:09.566Z,42.40
2023-02-11T03:18:05.112Z,39.50
2023-02-11T03:19:00.088Z,42.00
2023-02-11T03:19:55.343Z,38.50
2023-02-11T03:20:50.547Z,43.00
2023-02-11T03:21:45.797Z,34.00
2023-02-11T03:22:41.019Z,38.20
2023-02-11T03:23:36.528Z,35.30
2023-02-11T03:24:31.519Z,36.70
2023-02-11T03:25:26.855Z,35.10
2023-02-11T03:26:21.946Z,37.20
2023-02-11T03:27:17.168Z,36.50
2023-02-11T03:28:12.473Z,40.10
2023-02-11T03:29:07.713Z,44.10
2023-02-11T03:30:02.820Z,32.20
2023-02-11T03:30:58.076Z,37.30
2023-02-11T03:31:53.324Z,41.10
2023-02-11T03:32:48.560Z,38.10
2023-02-11T03:33:43.892Z,38.30
2023-02-11T03:34:39.142Z,36.60
2023-02-11T03:35:34.210Z,33.50
2023-02-11T03:36:29.562Z,37.40
2023-02-11T03:37:24.819Z,40.70
2023-02-11T03:38:20.054Z,40.70
2023-02-11T03:39:15.636Z,40.30
2023-02-11T03:40:10.647Z,35.80
2023-02-11T03:41:05.857Z,35.10
2023-02-11T03:42:01.108Z,36.30
2023-02-11T03:42:56.307Z,38.00
2023-02-11T03:43:51.785Z,38.60
2023-02-11T03:44:47.036Z,38.50
2023-02-11T03:45:42.215Z,40.70
2023-02-11T03:46:37.455Z,38.70
2023-02-11T03:47:32.670Z,35.90
2023-02-11T03:48:27.922Z,35.50
2023-02-11T03:49:23.292Z,38.80
2023-02-11T03:50:18.353Z,39.40
2023-02-11T03:51:13.735Z,34.60
2023-02-11T03:52:08.974Z,36.20
2023-02-11T03:53:04.433Z,37.80
2023-02-11T03:53:59.630Z,33.50
2023-02-11T03:54:55.264Z,38.00
2023-02-11T03:55:50.231Z,39.50
2023-02-11T03:56:45.220Z,36.00
2023-02-11T03:57:40.407Z,41.60
2023-02-11T03:58:35.630Z,40.40
2023-02-11T03:59:30.837Z,35.20
2023-02-11T04:00:26.209Z,41.50
2023-02-11T04:01:21.681Z,36.50
2023-02-11T04:02:16.540Z,34.60
2023-02-11T04:03:11.813Z,36.70
2023-02-11T04:04:07.168Z,35.20
2023-02-11T04:05:02.617Z,36.20
2023-02-11T04:05:58.450Z,38.60
2023-02-11T04:06:53.539Z,33.70
2023-02-11T04:07:48.900Z,35.80
2023-02-11T04:08:44.220Z,41.90
2023-02-11T04:09:39.498Z,35.90
2023-02-11T04:10:34.551Z,33.30
2023-02-11T04:11:30.010Z,35.80
2023-02-11T04:12:25.107Z,36.30
2023-02-11T04:13:20.469Z,30.80
2023-02-11T04:14:15.677Z,35.90
2023-02-11T04:15:11.009Z,34.00
2023-02-11T04:16:06.354Z,46.90
2023-02-11T04:17:01.536Z,33.60
2023-02-11T04:17:56.769Z,37.50
2023-02-11T04:18:51.992Z,33.20
2023-02-11T04:19:47.212Z,33.80
2023-02-11T04:20:42.468Z,37.30
2023-02-11T04:21:38.081Z,39.00
2023-02-11T04:22:32.932Z,33.80
2023-02-11T04:23:28.129Z,37.40
2023-02-11T04:24:23.415Z,32.20
2023-02-11T04:25:18.605Z,32.90
2023-02-11T04:26:13.862Z,31.30
2023-02-11T04:27:09.101Z,33.50
2023-02-11T04:28:04.404Z,31.10
2023-02-11T04:28:59.746Z,34.70
2023-02-11T04:29:55.098Z,36.50
2023-02-11T04:30:50.172Z,35.70
2023-02-11T04:31:45.466Z,33.20
2023-02-11T04:32:40.888Z,37.50
2023-02-11T04:33:37.064Z,32.30
2023-02-11T04:34:31.335Z,35.60
2023-02-11T04:35:26.562Z,34.40
2023-02-11T04:36:21.786Z,30.40
2023-02-11T04:37:17.825Z,35.30
2023-02-11T04:38:14.061Z,31.40
2023-02-11T04:39:08.237Z,35.30
2023-02-11T04:40:03.432Z,31.10
2023-02-11T04:40:58.813Z,36.00
2023-02-11T04:41:54.132Z,36.10
2023-02-11T04:42:49.374Z,35.60
2023-02-11T04:43:44.699Z,39.10
2023-02-11T04:44:39.930Z,35.40
2023-02-11T04:45:35.017Z,30.00
2023-02-11T04:46:30.236Z,37.70
2023-02-11T04:47:25.164Z,35.90
2023-02-11T04:48:20.253Z,36.00
2023-02-11T04:49:15.326Z,35.50
2023-02-11T04:50:10.305Z,37.10
2023-02-11T04:51:05.265Z,27.10
2023-02-11T04:52:00.366Z,35.80
2023-02-11T04:53:00.884Z,31.80
2023-02-11T04:53:56.134Z,31.00
2023-02-11T04:54:51.607Z,37.30
2023-02-11T04:55:47.268Z,33.50
2023-02-11T04:56:42.607Z,32.60
2023-02-11T04:57:38.050Z,32.20
2023-02-11T04:58:34.222Z,38.50
2023-02-11T04:59:29.484Z,32.00
2023-02-11T05:00:25.369Z,32.00
2023-02-11T05:01:20.559Z,34.70
2023-02-11T05:02:15.816Z,31.20
2023-02-11T05:03:11.633Z,38.10
2023-02-11T05:04:06.894Z,38.00
2023-02-11T05:05:02.929Z,34.20
2023-02-11T05:05:57.894Z,34.40
2023-02-11T05:06:53.221Z,37.10
2023-02-11T05:07:48.920Z,28.20
2023-02-11T05:08:44.244Z,39.60
2023-02-11T05:09:39.580Z,33.20
2023-02-11T05:10:35.934Z,37.00
2023-02-11T05:11:31.031Z,35.80
2023-02-11T05:12:26.888Z,32.10
2023-02-11T05:13:22.130Z,29.70
2023-02-11T05:14:17.638Z,29.10
2023-02-11T05:15:13.527Z,35.60
2023-02-11T05:16:08.647Z,28.30
2023-02-11T05:17:04.437Z,32.70
2023-02-11T05:17:59.721Z,32.00
2023-02-11T05:18:55.269Z,32.70
2023-02-11T05:19:50.851Z,30.70
2023-02-11T05:20:46.109Z,30.20
2023-02-11T05:21:53.184Z,31.10
2023-02-11T05:22:38.684Z,33.00
2023-02-11T05:23:33.010Z,29.40
2023-02-11T05:24:28.938Z,28.60
2023-02-11T05:25:25.106Z,30.80
2023-02-11T05:26:19.421Z,27.10
2023-02-11T05:28:43.747Z,31.10
2023-02-11T05:29:37.771Z,30.50
2023-02-11T05:30:33.060Z,36.00
2023-02-11T05:31:28.387Z,34.90
2023-02-11T05:32:23.596Z,31.90
2023-02-11T05:33:18.806Z,39.30
2023-02-11T05:34:14.061Z,33.30
2023-02-11T05:35:09.284Z,29.80
2023-02-11T05:36:04.643Z,34.50
2023-02-11T05:36:59.788Z,37.30
2023-02-11T05:37:55.043Z,36.50
2023-02-11T05:38:50.490Z,35.00
2023-02-11T05:39:45.612Z,33.30
2023-02-11T05:40:40.817Z,34.90
2023-02-11T05:41:36.217Z,36.70
2023-02-11T05:42:31.368Z,33.40
2023-02-11T05:43:26.611Z,35.80
2023-02-11T05:44:21.827Z,33.60
2023-02-11T05:45:17.191Z,29.50
2023-02-11T05:46:12.399Z,32.60
2023-02-11T05:47:07.644Z,32.70
2023-02-11T05:48:02.945Z,30.90
2023-02-11T05:48:58.419Z,32.10
2023-02-11T05:49:53.358Z,29.10
2023-02-11T05:50:48.731Z,31.90
2023-02-11T05:51:44.014Z,30.50
2023-02-11T05:52:39.246Z,36.80
2023-02-11T05:53:34.484Z,33.80
2023-02-11T05:54:29.833Z,31.30
2023-02-11T05:55:25.020Z,31.50
2023-02-11T05:56:20.252Z,31.80
2023-02-11T05:57:15.614Z,34.00
2023-02-11T05:58:10.689Z,29.40
2023-02-11T05:59:06.297Z,32.40
2023-02-11T06:00:01.261Z,39.00
2023-02-11T06:00:56.473Z,32.50
2023-02-11T06:01:51.712Z,32.50
2023-02-11T06:02:46.951Z,35.90
2023-02-11T06:03:42.207Z,29.10
2023-02-11T06:04:37.468Z,29.50
2023-02-11T06:05:32.777Z,29.80
2023-02-11T06:06:28.052Z,28.00
2023-02-11T06:07:23.305Z,33.10
2023-02-11T06:08:18.525Z,26.40
2023-02-11T06:09:13.857Z,37.20
2023-02-11T06:10:09.113Z,31.60
2023-02-11T06:11:05.324Z,28.00
2023-02-11T06:11:59.615Z,30.10
2023-02-11T06:12:55.350Z,28.50
2023-02-11T06:13:50.151Z,32.70
2023-02-11T06:14:45.452Z,29.90
2023-02-11T06:15:40.743Z,25.80
2023-02-11T06:16:36.027Z,33.20
2023-02-11T06:17:31.311Z,31.50
2023-02-11T06:18:26.721Z,31.00
2023-02-11T06:19:22.034Z,31.50
2023-02-11T06:20:17.173Z,33.70
2023-02-11T06:21:12.444Z,29.00
2023-02-11T06:22:07.713Z,37.70
2023-02-11T06:23:03.142Z,34.10
2023-02-11T06:23:58.510Z,31.60
2023-02-11T06:25:01.408Z,32.70
2023-02-11T06:25:50.440Z,32.60
2023-02-11T06:26:44.408Z,35.40
2023-02-11T06:27:39.652Z,38.20
2023-02-11T06:28:34.970Z,33.30
2023-02-11T06:29:30.282Z,32.80
2023-02-11T06:30:25.555Z,30.30
2023-02-11T06:31:21.040Z,34.70
2023-02-11T06:32:36.984Z,34.70
2023-02-11T06:33:12.960Z,34.80
2023-02-11T06:34:07.330Z,37.50
2023-02-11T06:35:02.669Z,27.90
2023-02-11T06:35:57.984Z,31.80
2023-02-11T06:36:53.286Z,30.70
2023-02-11T06:37:48.580Z,34.30
2023-02-11T06:38:44.046Z,28.30
2023-02-11T06:39:39.277Z,31.10
2023-02-11T06:40:34.624Z,34.10
2023-02-11T06:41:30.086Z,36.40
2023-02-11T06:42:25.291Z,39.10
2023-02-11T06:43:20.702Z,31.60
2023-02-11T06:44:16.071Z,32.80
2023-02-11T06:45:11.572Z,33.20
2023-02-11T06:46:06.867Z,32.40
2023-02-11T06:47:02.412Z,33.00
2023-02-11T06:47:57.700Z,35.30
2023-02-11T06:48:53.362Z,30.60
2023-02-11T06:49:48.526Z,33.80
2023-02-11T06:50:43.950Z,35.80
2023-02-11T06:51:39.337Z,34.90
2023-02-11T06:52:38.937Z,32.50
2023-02-11T06:53:34.530Z,37.20
2023-02-11T06:54:29.787Z,38.40
2023-02-11T06:55:25.347Z,40.90
2023-02-11T06:56:21.081Z,31.30
2023-02-11T06:57:16.046Z,34.60
2023-02-11T06:58:11.453Z,34.00
2023-02-11T06:59:06.849Z,36.90
2023-02-11T07:00:02.603Z,34.40
2023-02-11T07:00:57.734Z,31.00
2023-02-11T07:01:53.095Z,36.50
2023-02-11T07:02:48.423Z,31.50
2023-02-11T07:03:43.809Z,30.50
2023-02-11T07:04:38.804Z,36.50
2023-02-11T07:05:33.810Z,36.70
2023-02-11T07:06:28.787Z,32.10
2023-02-11T07:07:24.147Z,37.20
2023-02-11T07:08:19.001Z,28.20
2023-02-11T07:09:14.255Z,32.20
2023-02-11T07:10:09.299Z,29.30
2023-02-11T07:11:04.380Z,32.00
2023-02-11T07:12:00.147Z,35.90
2023-02-11T07:12:56.474Z,32.10
2023-02-11T07:13:50.023Z,34.90
2023-02-11T07:14:44.681Z,37.10
2023-02-11T07:15:39.961Z,34.70
2023-02-11T07:16:35.364Z,33.90
2023-02-11T07:17:30.833Z,32.70
2023-02-11T07:18:26.270Z,37.60
2023-02-11T07:19:21.278Z,33.30
2023-02-11T07:20:16.357Z,30.20
2023-02-11T07:21:11.388Z,31.00
2023-02-11T07:22:06.564Z,30.60
2023-02-11T07:23:01.616Z,35.00
2023-02-11T07:23:56.662Z,32.20
2023-02-11T07:24:51.849Z,33.10
2023-02-11T07:25:46.771Z,34.90
2023-02-11T07:26:41.787Z,31.60
2023-02-11T07:27:36.883Z,30.90
2023-02-11T07:28:32.012Z,29.40
2023-02-11T07:29:27.104Z,33.90
2023-02-11T07:30:22.139Z,31.00
2023-02-11T07:31:17.468Z,30.60
2023-02-11T07:32:14.459Z,30.40
2023-02-11T07:33:09.833Z,29.50
2023-02-11T07:34:06.352Z,31.20
2023-02-11T07:35:01.266Z,30.60
2023-02-11T07:35:56.512Z,34.20
2023-02-11T07:36:52.092Z,29.10
2023-02-11T07:37:48.023Z,26.50
2023-02-11T07:38:43.541Z,28.90
2023-02-11T07:39:39.444Z,32.20
2023-02-11T07:40:34.540Z,30.00
2023-02-11T07:41:30.029Z,29.80
2023-02-11T07:42:25.323Z,31.00
2023-02-11T07:43:20.159Z,27.90
2023-02-11T07:44:15.552Z,34.80
2023-02-11T07:45:10.498Z,26.90
2023-02-11T07:46:05.622Z,28.10
2023-02-11T07:47:00.690Z,39.10
2023-02-11T07:47:55.771Z,41.90
2023-02-11T07:48:50.831Z,41.50
2023-02-11T07:49:45.984Z,36.80
2023-02-11T07:50:40.905Z,39.60
2023-02-11T07:51:36.082Z,38.20
2023-02-11T07:52:31.105Z,31.70
2023-02-11T07:53:25.982Z,34.70
2023-02-11T07:54:20.950Z,34.60
2023-02-11T07:55:18.315Z,28.50
2023-02-11T07:56:13.608Z,27.80
2023-02-11T07:57:09.069Z,28.30
2023-02-11T07:58:04.521Z,23.90
2023-02-11T07:58:59.960Z,22.20
2023-02-11T07:59:55.468Z,25.90
2023-02-11T08:00:51.034Z,22.60
2023-02-11T08:01:46.389Z,21.00
2023-02-11T08:02:41.976Z,20.70
2023-02-11T08:03:37.286Z,20.70
2023-02-11T08:04:32.863Z,22.30
2023-02-11T08:05:28.149Z,22.90
2023-02-11T08:06:23.804Z,23.40
2023-02-11T08:07:19.440Z,28.70
2023-02-11T08:08:14.735Z,24.40
2023-02-11T08:09:09.748Z,24.40
2023-02-11T08:10:04.887Z,20.60
2023-02-11T08:10:59.849Z,23.60
2023-02-11T08:11:54.914Z,21.10
2023-02-11T08:12:49.896Z,24.10
2023-02-11T08:13:44.969Z,23.70
2023-02-11T08:14:40.147Z,26.60
2023-02-11T08:15:35.824Z,23.10
2023-02-11T08:16:30.279Z,25.70
2023-02-11T08:17:25.340Z,25.90
2023-02-11T08:18:22.016Z,28.40
2023-02-11T08:19:17.366Z,22.60
2023-02-11T08:20:12.894Z,22.70
2023-02-11T08:21:08.328Z,23.40
2023-02-11T08:22:03.749Z,23.60
2023-02-11T08:22:59.202Z,21.80
2023-02-11T08:23:54.529Z,22.20
2023-02-11T08:24:52.318Z,22.00
2023-02-11T08:25:45.552Z,22.90
2023-02-11T08:26:40.917Z,23.70
2023-02-11T08:27:36.376Z,24.20
2023-02-11T08:28:31.943Z,20.60
2023-02-11T08:29:27.445Z,24.10
2023-02-11T08:30:24.593Z,24.10
2023-02-11T08:31:18.531Z,24.60
2023-02-11T08:32:13.456Z,21.00
2023-02-11T08:33:08.387Z,27.60
2023-02-11T08:34:03.500Z,22.90
2023-02-11T08:34:58.521Z,25.80
2023-02-11T08:35:53.628Z,24.70
2023-02-11T08:36:48.682Z,25.10
2023-02-11T08:37:43.714Z,26.30
2023-02-11T08:38:39.030Z,25.50
2023-02-11T08:39:33.841Z,23.00
2023-02-11T08:40:28.978Z,23.70
2023-02-11T08:41:25.657Z,26.70
2023-02-11T08:42:20.726Z,24.40
2023-02-11T08:43:15.781Z,29.80
2023-02-11T08:44:10.737Z,28.00
2023-02-11T08:45:06.735Z,27.50
2023-02-11T08:46:02.659Z,26.30
2023-02-11T08:46:57.667Z,28.10
2023-02-11T08:47:53.138Z,28.40
2023-02-11T08:48:48.621Z,28.30
2023-02-11T08:49:44.651Z,33.70
2023-02-11T08:50:39.664Z,26.70
2023-02-11T08:51:35.424Z,29.00
2023-02-11T08:52:30.630Z,25.80
2023-02-11T08:53:26.062Z,26.00
2023-02-11T08:54:21.546Z,24.80
2023-02-11T08:55:16.988Z,25.40
2023-02-11T08:56:13.572Z,23.50
2023-02-11T08:57:08.061Z,23.90
2023-02-11T08:58:03.048Z,24.60
2023-02-11T08:58:57.997Z,26.00
2023-02-11T08:59:53.295Z,26.70
2023-02-11T09:00:48.666Z,22.20
2023-02-11T09:01:43.693Z,22.60
2023-02-11T09:02:38.610Z,25.40
2023-02-11T09:03:33.657Z,27.40
2023-02-11T09:04:31.164Z,26.60
2023-02-11T09:05:26.395Z,22.40
2023-02-11T09:06:21.336Z,25.70
2023-02-11T09:07:16.883Z,25.40
2023-02-11T09:08:11.550Z,22.20
2023-02-11T09:09:06.699Z,23.20
2023-02-11T09:10:01.622Z,23.80
2023-02-11T09:10:56.725Z,23.20
2023-02-11T09:11:52.418Z,22.30
2023-02-11T09:12:47.642Z,23.80
2023-02-11T09:13:43.179Z,22.60
2023-02-11T09:14:38.911Z,24.40
2023-02-11T09:15:34.065Z,22.20
2023-02-11T09:16:30.249Z,22.90
2023-02-11T09:17:25.496Z,24.10
2023-02-11T09:18:20.973Z,26.40
2023-02-11T09:19:16.412Z,25.10
2023-02-11T09:20:11.939Z,23.10
2023-02-11T09:21:06.992Z,23.00
2023-02-11T09:22:02.411Z,22.90
2023-02-11T09:22:57.458Z,21.90
2023-02-11T09:23:52.087Z,22.90
2023-02-11T09:24:47.249Z,24.60
2023-02-11T09:25:42.300Z,22.70
2023-02-11T09:26:37.330Z,23.90
2023-02-11T09:27:35.021Z,22.30
2023-02-11T09:28:30.079Z,24.70
2023-02-11T09:29:25.090Z,20.80
2023-02-11T09:30:20.090Z,22.80
2023-02-11T09:31:15.312Z,21.80
2023-02-11T09:32:10.330Z,22.10
2023-02-11T09:33:05.386Z,24.40
2023-02-11T09:34:00.284Z,23.60
2023-02-11T09:34:55.748Z,21.20
2023-02-11T09:35:51.391Z,24.10
2023-02-11T09:36:47.173Z,19.60
2023-02-11T09:37:42.205Z,23.00
2023-02-11T09:38:37.662Z,20.70
2023-02-11T09:39:33.224Z,21.40
2023-02-11T09:40:28.718Z,22.60
2023-02-11T09:41:24.154Z,20.30
2023-02-11T09:42:19.704Z,20.90
2023-02-11T09:43:15.196Z,21.90
2023-02-11T09:44:10.652Z,22.40
2023-02-11T09:45:06.085Z,23.60
2023-02-11T09:46:01.593Z,25.20
2023-02-11T09:46:57.165Z,22.50
2023-02-11T09:47:52.675Z,20.50
2023-02-11T09:48:48.100Z,25.80
2023-02-11T09:49:43.313Z,23.40
2023-02-11T09:50:42.673Z,21.30
2023-02-11T09:51:37.954Z,21.20
2023-02-11T09:52:33.438Z,23.70
2023-02-11T09:53:29.082Z,20.70
2023-02-11T09:54:24.425Z,22.30
2023-02-11T09:55:19.924Z,20.40
2023-02-11T09:56:15.893Z,22.70
2023-02-11T09:57:26.512Z,23.00
2023-02-11T09:58:08.185Z,20.60
2023-02-11T09:59:02.474Z,19.80
2023-02-11T09:59:58.163Z,20.50
2023-02-11T10:00:53.608Z,21.00
2023-02-11T10:01:49.427Z,20.70
2023-02-11T10:02:44.469Z,20.50
2023-02-11T10:03:40.002Z,20.10
2023-02-11T10:04:35.109Z,19.10
2023-02-11T10:05:30.073Z,20.10
2023-02-11T10:06:25.159Z,19.60
2023-02-11T10:07:20.274Z,22.90
2023-02-11T10:08:16.988Z,23.40
2023-02-11T10:09:10.455Z,20.40
2023-02-11T10:10:05.511Z,19.60
2023-02-11T10:11:00.564Z,22.40
2023-02-11T10:11:55.645Z,20.10
2023-02-11T10:12:50.763Z,23.60
2023-02-11T10:13:46.714Z,25.50
2023-02-11T10:14:41.662Z,25.20
2023-02-11T10:15:36.750Z,26.10
2023-02-11T10:16:32.610Z,29.00
2023-02-11T10:17:27.571Z,21.60
2023-02-11T10:18:23.096Z,25.40
2023-02-11T10:19:18.709Z,24.00
2023-02-11T10:20:16.550Z,35.70
2023-02-11T10:21:09.577Z,37.70
2023-02-11T10:22:04.817Z,27.10
2023-02-11T10:22:59.923Z,25.70
2023-02-11T10:23:54.919Z,28.10
2023-02-11T10:24:50.178Z,28.00
2023-02-11T10:25:45.546Z,25.10
2023-02-11T10:26:40.153Z,31.60
2023-02-11T10:27:35.268Z,30.00
2023-02-11T10:28:30.361Z,33.00
2023-02-11T10:29:25.387Z,25.90
2023-02-11T10:30:20.648Z,26.90
2023-02-11T10:31:15.614Z,27.70
2023-02-11T10:32:11.351Z,29.40
2023-02-11T10:33:05.721Z,26.00
2023-02-11T10:34:00.670Z,26.80
2023-02-11T10:34:55.892Z,31.00
2023-02-11T10:35:51.392Z,28.90
2023-02-11T10:36:50.647Z,28.80
2023-02-11T10:37:46.232Z,30.70
2023-02-11T10:38:41.660Z,28.20
2023-02-11T10:39:36.956Z,32.30
2023-02-11T10:40:32.393Z,26.40
2023-02-11T10:41:27.964Z,29.00
2023-02-11T10:42:23.312Z,35.00
2023-02-11T10:43:19.005Z,31.00
2023-02-11T10:44:14.197Z,31.70
2023-02-11T10:45:09.636Z,33.30
2023-02-11T10:46:05.318Z,29.70
2023-02-11T10:47:00.526Z,37.70
2023-02-11T10:47:56.140Z,31.90
2023-02-11T10:48:51.641Z,29.60
2023-02-11T10:49:47.189Z,26.90
2023-02-11T10:50:42.266Z,35.30
2023-02-11T10:51:37.312Z,29.40
2023-02-11T10:52:32.294Z,27.20
2023-02-11T10:53:27.438Z,29.20
2023-02-11T10:54:22.443Z,31.30
2023-02-11T10:55:17.471Z,28.60
2023-02-11T10:56:12.557Z,24.80
2023-02-11T10:57:07.687Z,26.50
2023-02-11T10:58:02.784Z,26.40
2023-02-11T10:58:57.880Z,26.50
2023-02-11T10:59:54.102Z,27.60
2023-02-11T11:00:49.922Z,27.00
2023-02-11T11:01:44.977Z,23.10
2023-02-11T11:02:40.421Z,22.30
2023-02-11T11:05:00.850Z,20.10
2023-02-11T11:05:58.197Z,21.10
2023-02-11T11:06:51.469Z,20.80
2023-02-11T11:07:46.951Z,26.60
2023-02-11T11:08:42.500Z,20.50
2023-02-11T11:09:37.896Z,21.00
2023-02-11T11:10:33.381Z,19.30
2023-02-11T11:11:28.727Z,25.20
2023-02-11T11:12:24.147Z,20.60
2023-02-11T11:13:19.569Z,20.90
2023-02-11T11:14:15.017Z,22.70
2023-02-11T11:15:10.466Z,26.80
2023-02-11T11:16:06.119Z,24.90
2023-02-11T11:17:01.271Z,26.60
2023-02-11T11:18:11.350Z,23.90
2023-02-11T11:18:53.137Z,22.00
2023-02-11T11:19:47.468Z,21.50
2023-02-11T11:20:43.042Z,21.90
2023-02-11T11:21:38.573Z,23.50
2023-02-11T11:22:33.975Z,24.50
2023-02-11T11:23:29.526Z,18.20
2023-02-11T11:24:26.951Z,25.70
2023-02-11T11:25:20.556Z,16.60
2023-02-11T11:26:16.119Z,17.90
2023-02-11T11:27:11.756Z,19.30
2023-02-11T11:28:07.377Z,21.50
2023-02-11T11:29:02.687Z,19.30
2023-02-11T11:29:58.304Z,21.10
2023-02-11T11:30:54.189Z,14.50
2023-02-11T11:31:49.335Z,16.20
2023-02-11T11:32:44.674Z,15.70
2023-02-11T11:33:40.120Z,19.20
2023-02-11T11:34:35.609Z,17.70
2023-02-11T11:35:31.255Z,17.50
2023-02-11T11:36:26.736Z,13.80
2023-02-11T11:37:22.344Z,15.30
2023-02-11T11:38:17.715Z,14.00
2023-02-11T11:39:13.689Z,15.40
2023-02-11T11:40:08.656Z,12.50
2023-02-11T11:41:04.161Z,14.10
2023-02-11T11:41:59.898Z,16.90
2023-02-11T11:42:55.283Z,12.90
2023-02-11T11:43:50.670Z,21.00
2023-02-11T11:44:46.420Z,15.40
2023-02-11T11:45:41.842Z,19.10
2023-02-11T11:46:37.319Z,15.60
2023-02-11T11:47:32.814Z,18.50
2023-02-11T11:48:28.083Z,16.00
2023-02-11T11:49:23.603Z,14.20
2023-02-11T11:50:21.094Z,14.60
2023-02-11T11:51:14.738Z,23.90
2023-02-11T11:52:10.313Z,14.00
2023-02-11T11:53:05.815Z,17.10
2023-02-11T11:54:01.214Z,12.70
2023-02-11T11:54:56.795Z,18.90
2023-02-11T11:55:52.314Z,17.40
2023-02-11T11:56:47.838Z,12.80
2023-02-11T11:57:43.427Z,12.00
2023-02-11T11:58:38.757Z,10.40
2023-02-11T11:59:34.413Z,10.30